sensor_id;sensor_type;location;lat;lon;timestamp;pressure;altitude;pressure_sealevel;temperature;humidity
68807;BME280;55800;54.272;18.558;2023-02-28T00:02:09;102574.66;;;-4.71;65.04
68807;BME280;55800;54.272;18.558;2023-02-28T00:04:39;102579.88;;;-4.71;64.17
68807;BME280;55800;54.272;18.558;2023-02-28T00:07:08;102579.59;;;-4.78;64.70
68807;BME280;55800;54.272;18.558;2023-02-28T00:09:37;102583.81;;;-4.80;64.26
68807;BME280;55800;54.272;18.558;2023-02-28T00:12:07;102582.84;;;-4.82;64.62
68807;BME280;55800;54.272;18.558;2023-02-28T00:14:39;102575.81;;;-4.83;64.10
68807;BME280;55800;54.272;18.558;2023-02-28T00:17:08;102577.53;;;-4.83;64.45
68807;BME280;55800;54.272;18.558;2023-02-28T00:19:38;102581.72;;;-4.87;64.33
68807;BME280;55800;54.272;18.558;2023-02-28T00:22:07;102584.25;;;-4.88;64.29
68807;BME280;55800;54.272;18.558;2023-02-28T00:24:37;102578.63;;;-4.96;65.22
68807;BME280;55800;54.272;18.558;2023-02-28T00:27:06;102580.25;;;-4.98;64.54
68807;BME280;55800;54.272;18.558;2023-02-28T00:29:35;102589.06;;;-4.96;64.55
68807;BME280;55800;54.272;18.558;2023-02-28T00:32:06;102583.84;;;-4.96;64.00
68807;BME280;55800;54.272;18.558;2023-02-28T00:34:38;102593.97;;;-5.02;65.60
68807;BME280;55800;54.272;18.558;2023-02-28T00:37:11;102596.56;;;-5.02;65.27
68807;BME280;55800;54.272;18.558;2023-02-28T00:39:41;102606.03;;;-5.04;64.55
68807;BME280;55800;54.272;18.558;2023-02-28T00:42:10;102598.13;;;-5.05;65.13
68807;BME280;55800;54.272;18.558;2023-02-28T00:44:40;102603.25;;;-5.07;66.02
68807;BME280;55800;54.272;18.558;2023-02-28T00:47:10;102610.09;;;-5.09;64.46
68807;BME280;55800;54.272;18.558;2023-02-28T00:49:40;102610.91;;;-5.10;64.19
68807;BME280;55800;54.272;18.558;2023-02-28T00:52:10;102601.94;;;-5.15;64.64
68807;BME280;55800;54.272;18.558;2023-02-28T00:54:39;102600.97;;;-5.17;65.53
68807;BME280;55800;54.272;18.558;2023-02-28T00:57:08;102610.28;;;-5.22;65.98
68807;BME280;55800;54.272;18.558;2023-02-28T00:59:38;102612.88;;;-5.22;65.26
68807;BME280;55800;54.272;18.558;2023-02-28T01:02:07;102618.97;;;-5.21;64.87
68807;BME280;55800;54.272;18.558;2023-02-28T01:04:38;102619.75;;;-5.24;65.60
68807;BME280;55800;54.272;18.558;2023-02-28T01:07:07;102613.38;;;-5.29;66.65
68807;BME280;55800;54.272;18.558;2023-02-28T01:09:37;102616.94;;;-5.27;65.77
68807;BME280;55800;54.272;18.558;2023-02-28T01:12:07;102616.94;;;-5.27;65.63
68807;BME280;55800;54.272;18.558;2023-02-28T01:14:37;102615.00;;;-5.31;65.66
68807;BME280;55800;54.272;18.558;2023-02-28T01:17:06;102613.03;;;-5.35;65.64
68807;BME280;55800;54.272;18.558;2023-02-28T01:19:36;102613.03;;;-5.35;66.04
68807;BME280;55800;54.272;18.558;2023-02-28T01:22:07;102621.84;;;-5.33;65.16
68807;BME280;55800;54.272;18.558;2023-02-28T01:24:37;102617.16;;;-5.38;66.24
68807;BME280;55800;54.272;18.558;2023-02-28T01:27:07;102609.13;;;-5.43;65.66
68807;BME280;55800;54.272;18.558;2023-02-28T01:29:37;102609.28;;;-5.40;65.62
68807;BME280;55800;54.272;18.558;2023-02-28T01:32:07;102603.94;;;-5.43;65.94
68807;BME280;55800;54.272;18.558;2023-02-28T01:34:36;102606.69;;;-5.40;64.88
68807;BME280;55800;54.272;18.558;2023-02-28T01:37:07;102599.59;;;-5.42;65.86
68807;BME280;55800;54.272;18.558;2023-02-28T01:39:36;102603.09;;;-5.42;64.55
68807;BME280;55800;54.272;18.558;2023-02-28T01:42:05;102601.13;;;-5.46;64.76
68807;BME280;55800;54.272;18.558;2023-02-28T01:44:58;102590.53;;;-5.49;64.28
68807;BME280;55800;54.272;18.558;2023-02-28T01:47:30;102592.34;;;-5.48;64.58
68807;BME280;55800;54.272;18.558;2023-02-28T01:50:04;102598.03;;;-5.55;65.03
68807;BME280;55800;54.272;18.558;2023-02-28T01:52:36;102591.69;;;-5.60;65.79
68807;BME280;55800;54.272;18.558;2023-02-28T01:55:07;102592.34;;;-5.64;65.66
68807;BME280;55800;54.272;18.558;2023-02-28T01:57:43;102589.63;;;-5.66;65.81
68807;BME280;55800;54.272;18.558;2023-02-28T02:00:18;102586.94;;;-5.67;65.91
68807;BME280;55800;54.272;18.558;2023-02-28T02:02:52;102592.81;;;-5.71;67.05
68807;BME280;55800;54.272;18.558;2023-02-28T02:05:24;102587.66;;;-5.70;65.40
68807;BME280;55800;54.272;18.558;2023-02-28T02:07:58;102580.03;;;-5.67;65.49
68807;BME280;55800;54.272;18.558;2023-02-28T02:10:35;102579.06;;;-5.69;65.21
68807;BME280;55800;54.272;18.558;2023-02-28T02:13:18;102577.19;;;-5.71;64.70
68807;BME280;55800;54.272;18.558;2023-02-28T02:15:57;102582.38;;;-5.71;64.51
68807;BME280;55800;54.272;18.558;2023-02-28T02:18:36;102585.78;;;-5.72;64.37
68807;BME280;55800;54.272;18.558;2023-02-28T02:21:33;102577.81;;;-5.75;64.02
68807;BME280;55800;54.272;18.558;2023-02-28T02:24:33;102587.28;;;-5.77;63.98
68807;BME280;55800;54.272;18.558;2023-02-28T02:27:23;102581.88;;;-5.80;64.62
68807;BME280;55800;54.272;18.558;2023-02-28T02:30:07;102581.56;;;-5.86;66.14
68807;BME280;55800;54.272;18.558;2023-02-28T02:33:05;102588.41;;;-5.88;65.40
68807;BME280;55800;54.272;18.558;2023-02-28T02:35:45;102575.22;;;-5.91;64.92
68807;BME280;55800;54.272;18.558;2023-02-28T02:38:20;102593.19;;;-5.96;65.65
68807;BME280;55800;54.272;18.558;2023-02-28T02:40:58;102597.31;;;-5.99;65.74
68807;BME280;55800;54.272;18.558;2023-02-28T02:43:36;102593.81;;;-6.00;66.64
68807;BME280;55800;54.272;18.558;2023-02-28T02:46:11;102598.94;;;-6.01;67.08
68807;BME280;55800;54.272;18.558;2023-02-28T02:48:46;102591.22;;;-6.00;66.08
68807;BME280;55800;54.272;18.558;2023-02-28T02:51:20;102590.34;;;-6.00;66.51
68807;BME280;55800;54.272;18.558;2023-02-28T02:53:56;102592.13;;;-5.99;66.14
68807;BME280;55800;54.272;18.558;2023-02-28T02:56:30;102592.03;;;-6.01;66.84
68807;BME280;55800;54.272;18.558;2023-02-28T02:59:04;102599.94;;;-5.99;66.08
68807;BME280;55800;54.272;18.558;2023-02-28T03:01:37;102598.78;;;-6.04;65.89
68807;BME280;55800;54.272;18.558;2023-02-28T03:04:11;102597.78;;;-6.06;66.43
68807;BME280;55800;54.272;18.558;2023-02-28T03:06:43;102595.94;;;-6.09;66.80
68807;BME280;55800;54.272;18.558;2023-02-28T03:09:13;102603.81;;;-6.07;66.33
68807;BME280;55800;54.272;18.558;2023-02-28T03:11:42;102602.84;;;-6.09;66.26
68807;BME280;55800;54.272;18.558;2023-02-28T03:14:37;102613.06;;;-6.12;66.64
68807;BME280;55800;54.272;18.558;2023-02-28T03:17:39;102605.97;;;-6.15;66.18
68807;BME280;55800;54.272;18.558;2023-02-28T03:20:17;102609.41;;;-6.16;65.57
68807;BME280;55800;54.272;18.558;2023-02-28T03:23:04;102610.75;;;-6.22;66.73
68807;BME280;55800;54.272;18.558;2023-02-28T03:25:41;102613.44;;;-6.21;66.14
68807;BME280;55800;54.272;18.558;2023-02-28T03:28:17;102615.88;;;-6.24;65.86
68807;BME280;55800;54.272;18.558;2023-02-28T03:31:20;102620.75;;;-6.30;66.67
68807;BME280;55800;54.272;18.558;2023-02-28T03:33:54;102619.00;;;-6.29;65.46
68807;BME280;55800;54.272;18.558;2023-02-28T03:36:27;102610.22;;;-6.31;66.12
68807;BME280;55800;54.272;18.558;2023-02-28T03:39:03;102609.16;;;-6.35;67.35
68807;BME280;55800;54.272;18.558;2023-02-28T03:41:38;102612.81;;;-6.31;66.79
68807;BME280;55800;54.272;18.558;2023-02-28T03:44:12;102614.38;;;-6.35;67.36
68807;BME280;55800;54.272;18.558;2023-02-28T03:46:48;102614.00;;;-6.41;67.56
68807;BME280;55800;54.272;18.558;2023-02-28T03:49:24;102616.63;;;-6.41;66.86
68807;BME280;55800;54.272;18.558;2023-02-28T03:51:57;102613.94;;;-6.43;66.52
68807;BME280;55800;54.272;18.558;2023-02-28T03:54:31;102617.53;;;-6.41;66.45
68807;BME280;55800;54.272;18.558;2023-02-28T03:57:08;102610.50;;;-6.42;65.80
68807;BME280;55800;54.272;18.558;2023-02-28T03:59:44;102607.56;;;-6.48;66.37
68807;BME280;55800;54.272;18.558;2023-02-28T04:02:16;102605.84;;;-6.47;66.46
68807;BME280;55800;54.272;18.558;2023-02-28T04:04:46;102604.13;;;-6.47;66.05
68807;BME280;55800;54.272;18.558;2023-02-28T04:07:18;102603.06;;;-6.50;66.12
68807;BME280;55800;54.272;18.558;2023-02-28T04:09:48;102601.19;;;-6.53;66.17
68807;BME280;55800;54.272;18.558;2023-02-28T04:12:18;102604.69;;;-6.52;65.67
68807;BME280;55800;54.272;18.558;2023-02-28T04:14:47;102605.50;;;-6.53;66.82
68807;BME280;55800;54.272;18.558;2023-02-28T04:17:17;102602.09;;;-6.52;65.48
68807;BME280;55800;54.272;18.558;2023-02-28T04:19:46;102610.53;;;-6.56;66.31
68807;BME280;55800;54.272;18.558;2023-02-28T04:22:16;102612.28;;;-6.55;66.17
68807;BME280;55800;54.272;18.558;2023-02-28T04:24:47;102616.63;;;-6.56;66.15
68807;BME280;55800;54.272;18.558;2023-02-28T04:27:17;102618.13;;;-6.59;65.87
68807;BME280;55800;54.272;18.558;2023-02-28T04:29:46;102619.88;;;-6.60;65.29
68807;BME280;55800;54.272;18.558;2023-02-28T04:32:15;102614.47;;;-6.63;66.10
68807;BME280;55800;54.272;18.558;2023-02-28T04:34:44;102609.97;;;-6.65;65.68
68807;BME280;55800;54.272;18.558;2023-02-28T04:37:14;102620.38;;;-6.65;65.72
68807;BME280;55800;54.272;18.558;2023-02-28T04:39:43;102604.69;;;-6.67;66.11
68807;BME280;55800;54.272;18.558;2023-02-28T04:42:15;102618.31;;;-6.71;66.33
68807;BME280;55800;54.272;18.558;2023-02-28T04:44:44;102609.81;;;-6.68;66.21
68807;BME280;55800;54.272;18.558;2023-02-28T04:47:15;102607.22;;;-6.68;66.10
68807;BME280;55800;54.272;18.558;2023-02-28T04:49:44;102602.72;;;-6.71;65.72
68807;BME280;55800;54.272;18.558;2023-02-28T04:52:13;102603.50;;;-6.72;66.58
68807;BME280;55800;54.272;18.558;2023-02-28T04:54:42;102607.84;;;-6.72;66.12
68807;BME280;55800;54.272;18.558;2023-02-28T04:57:13;102607.56;;;-6.77;66.25
68807;BME280;55800;54.272;18.558;2023-02-28T04:59:42;102607.56;;;-6.77;66.90
68807;BME280;55800;54.272;18.558;2023-02-28T05:02:12;102602.25;;;-6.78;67.06
68807;BME280;55800;54.272;18.558;2023-02-28T05:04:41;102606.75;;;-6.76;65.41
68807;BME280;55800;54.272;18.558;2023-02-28T05:07:10;102601.19;;;-6.82;65.59
68807;BME280;55800;54.272;18.558;2023-02-28T05:09:39;102613.81;;;-6.88;67.03
68807;BME280;55800;54.272;18.558;2023-02-28T05:12:10;102610.31;;;-6.88;66.28
68807;BME280;55800;54.272;18.558;2023-02-28T05:14:40;102607.72;;;-6.88;67.16
68807;BME280;55800;54.272;18.558;2023-02-28T05:17:10;102610.41;;;-6.87;66.66
68807;BME280;55800;54.272;18.558;2023-02-28T05:19:39;102605.81;;;-6.91;66.47
68807;BME280;55800;54.272;18.558;2023-02-28T05:22:13;102611.03;;;-6.91;66.71
68807;BME280;55800;54.272;18.558;2023-02-28T05:24:43;102601.63;;;-6.89;66.69
68807;BME280;55800;54.272;18.558;2023-02-28T05:27:13;102605.94;;;-6.89;66.51
68807;BME280;55800;54.272;18.558;2023-02-28T05:29:43;102608.44;;;-6.91;66.82
68807;BME280;55800;54.272;18.558;2023-02-28T05:32:14;102609.25;;;-6.92;67.39
68807;BME280;55800;54.272;18.558;2023-02-28T05:34:43;102615.34;;;-6.91;65.82
68807;BME280;55800;54.272;18.558;2023-02-28T05:37:14;102613.25;;;-6.97;66.72
68807;BME280;55800;54.272;18.558;2023-02-28T05:39:43;102614.09;;;-6.98;66.53
68807;BME280;55800;54.272;18.558;2023-02-28T05:42:12;102612.28;;;-6.99;67.38
68807;BME280;55800;54.272;18.558;2023-02-28T05:44:43;102604.56;;;-6.97;67.92
68807;BME280;55800;54.272;18.558;2023-02-28T05:47:13;102610.66;;;-6.97;67.12
68807;BME280;55800;54.272;18.558;2023-02-28T05:49:43;102596.69;;;-6.99;67.09
68807;BME280;55800;54.272;18.558;2023-02-28T05:52:12;102599.19;;;-7.00;67.68
68807;BME280;55800;54.272;18.558;2023-02-28T05:54:42;102597.50;;;-7.00;67.64
68807;BME280;55800;54.272;18.558;2023-02-28T05:57:11;102598.28;;;-7.01;67.15
68807;BME280;55800;54.272;18.558;2023-02-28T05:59:52;102592.19;;;-7.01;67.31
68807;BME280;55800;54.272;18.558;2023-02-28T06:02:22;102598.66;;;-6.95;66.89
68807;BME280;55800;54.272;18.558;2023-02-28T06:04:51;102598.56;;;-6.96;67.03
68807;BME280;55800;54.272;18.558;2023-02-28T06:07:20;102596.59;;;-7.00;67.04
68807;BME280;55800;54.272;18.558;2023-02-28T06:09:50;102596.50;;;-7.02;67.89
68807;BME280;55800;54.272;18.558;2023-02-28T06:12:19;102596.69;;;-6.99;67.57
68807;BME280;55800;54.272;18.558;2023-02-28T06:14:48;102593.28;;;-6.98;67.73
68807;BME280;55800;54.272;18.558;2023-02-28T06:17:19;102602.06;;;-6.96;67.28
68807;BME280;55800;54.272;18.558;2023-02-28T06:19:48;102596.25;;;-6.92;67.60
68807;BME280;55800;54.272;18.558;2023-02-28T06:22:18;102597.41;;;-6.87;67.04
68807;BME280;55800;54.272;18.558;2023-02-28T06:24:47;102604.22;;;-6.89;68.01
68807;BME280;55800;54.272;18.558;2023-02-28T06:27:16;102610.41;;;-6.87;67.23
68807;BME280;55800;54.272;18.558;2023-02-28T06:29:47;102594.22;;;-6.83;67.36
68807;BME280;55800;54.272;18.558;2023-02-28T06:32:17;102601.19;;;-6.82;67.89
68807;BME280;55800;54.272;18.558;2023-02-28T06:34:47;102602.38;;;-6.77;67.99
68807;BME280;55800;54.272;18.558;2023-02-28T06:37:18;102604.78;;;-6.65;68.79
68807;BME280;55800;54.272;18.558;2023-02-28T06:39:48;102599.22;;;-6.57;67.86
68807;BME280;55800;54.272;18.558;2023-02-28T06:42:18;102599.41;;;-6.54;68.59
68807;BME280;55800;54.272;18.558;2023-02-28T06:44:47;102597.16;;;-6.48;67.90
68807;BME280;55800;54.272;18.558;2023-02-28T06:47:18;102593.28;;;-6.40;69.32
68807;BME280;55800;54.272;18.558;2023-02-28T06:49:47;102610.41;;;-6.28;68.29
68807;BME280;55800;54.272;18.558;2023-02-28T06:52:17;102605.56;;;-6.22;69.64
68807;BME280;55800;54.272;18.558;2023-02-28T06:54:47;102598.41;;;-6.10;68.66
68807;BME280;55800;54.272;18.558;2023-02-28T06:57:28;102601.56;;;-6.01;68.74
68807;BME280;55800;54.272;18.558;2023-02-28T06:59:59;102598.56;;;-5.93;68.44
68807;BME280;55800;54.272;18.558;2023-02-28T07:02:32;102592.63;;;-5.90;68.28
68807;BME280;55800;54.272;18.558;2023-02-28T07:05:02;102607.63;;;-5.86;68.26
68807;BME280;55800;54.272;18.558;2023-02-28T07:07:32;102594.91;;;-5.80;68.24
68807;BME280;55800;54.272;18.558;2023-02-28T07:10:02;102599.00;;;-5.69;69.56
68807;BME280;55800;54.272;18.558;2023-02-28T07:12:32;102597.88;;;-5.58;69.01
68807;BME280;55800;54.272;18.558;2023-02-28T07:15:01;102591.50;;;-5.47;69.08
68807;BME280;55800;54.272;18.558;2023-02-28T07:17:32;102600.00;;;-5.35;69.69
68807;BME280;55800;54.272;18.558;2023-02-28T07:20:01;102599.69;;;-5.25;69.50
68807;BME280;55800;54.272;18.558;2023-02-28T07:22:35;102602.13;;;-5.12;69.06
68807;BME280;55800;54.272;18.558;2023-02-28T07:25:05;102595.75;;;-5.01;69.69
68807;BME280;55800;54.272;18.558;2023-02-28T07:27:37;102601.75;;;-4.86;69.59
68807;BME280;55800;54.272;18.558;2023-02-28T07:30:10;102601.50;;;-4.74;69.47
68807;BME280;55800;54.272;18.558;2023-02-28T07:32:41;102608.97;;;-4.64;69.17
68807;BME280;55800;54.272;18.558;2023-02-28T07:35:12;102605.19;;;-4.53;69.45
68807;BME280;55800;54.272;18.558;2023-02-28T07:37:43;102602.16;;;-4.44;68.89
68807;BME280;55800;54.272;18.558;2023-02-28T07:40:15;102606.13;;;-4.35;69.07
68807;BME280;55800;54.272;18.558;2023-02-28T07:42:46;102602.47;;;-4.21;70.69
68807;BME280;55800;54.272;18.558;2023-02-28T07:45:17;102605.22;;;-4.00;70.51
68807;BME280;55800;54.272;18.558;2023-02-28T07:47:48;102617.09;;;-3.89;70.78
68807;BME280;55800;54.272;18.558;2023-02-28T07:50:18;102610.94;;;-3.72;71.81
68807;BME280;55800;54.272;18.558;2023-02-28T07:52:48;102615.09;;;-3.58;72.00
68807;BME280;55800;54.272;18.558;2023-02-28T07:55:17;102616.56;;;-3.45;70.76
68807;BME280;55800;54.272;18.558;2023-02-28T07:57:46;102618.16;;;-3.30;71.08
68807;BME280;55800;54.272;18.558;2023-02-28T08:00:16;102607.50;;;-3.15;71.88
68807;BME280;55800;54.272;18.558;2023-02-28T08:02:47;102617.75;;;-3.00;71.40
68807;BME280;55800;54.272;18.558;2023-02-28T08:05:17;102612.38;;;-2.84;72.27
68807;BME280;55800;54.272;18.558;2023-02-28T08:07:49;102614.03;;;-2.67;72.16
68807;BME280;55800;54.272;18.558;2023-02-28T08:10:19;102615.50;;;-2.53;72.13
68807;BME280;55800;54.272;18.558;2023-02-28T08:12:48;102611.63;;;-2.42;71.70
68807;BME280;55800;54.272;18.558;2023-02-28T08:15:17;102599.97;;;-2.28;71.97
68807;BME280;55800;54.272;18.558;2023-02-28T08:17:48;102593.84;;;-2.08;72.41
68807;BME280;55800;54.272;18.558;2023-02-28T08:20:18;102599.66;;;-1.93;72.38
68807;BME280;55800;54.272;18.558;2023-02-28T08:22:47;102584.88;;;-1.70;72.48
68807;BME280;55800;54.272;18.558;2023-02-28T08:25:17;102584.63;;;-1.54;72.13
68807;BME280;55800;54.272;18.558;2023-02-28T08:27:47;102582.69;;;-1.36;72.47
68807;BME280;55800;54.272;18.558;2023-02-28T08:30:17;102576.28;;;-1.20;72.00
68807;BME280;55800;54.272;18.558;2023-02-28T08:32:48;102580.38;;;-1.05;72.04
68807;BME280;55800;54.272;18.558;2023-02-28T08:35:17;102573.94;;;-0.89;72.15
68807;BME280;55800;54.272;18.558;2023-02-28T08:37:48;102575.47;;;-0.70;71.73
68807;BME280;55800;54.272;18.558;2023-02-28T08:40:18;102571.53;;;-0.58;71.28
68807;BME280;55800;54.272;18.558;2023-02-28T08:42:48;102558.91;;;-0.43;71.35
68807;BME280;55800;54.272;18.558;2023-02-28T08:45:17;102563.66;;;-0.31;70.82
68807;BME280;55800;54.272;18.558;2023-02-28T08:47:50;102558.00;;;-0.17;70.96
68807;BME280;55800;54.272;18.558;2023-02-28T08:50:20;102568.09;;;-0.04;70.72
68807;BME280;55800;54.272;18.558;2023-02-28T08:52:49;102573.72;;;0.09;70.47
68807;BME280;55800;54.272;18.558;2023-02-28T08:55:19;102568.88;;;0.21;70.32
68807;BME280;55800;54.272;18.558;2023-02-28T08:57:48;102569.28;;;0.34;70.02
68807;BME280;55800;54.272;18.558;2023-02-28T09:00:18;102566.22;;;0.49;69.82
68807;BME280;55800;54.272;18.558;2023-02-28T09:02:51;102572.69;;;0.60;69.89
68807;BME280;55800;54.272;18.558;2023-02-28T09:05:20;102577.47;;;0.73;69.20
68807;BME280;55800;54.272;18.558;2023-02-28T09:07:51;102574.25;;;0.83;69.47
68807;BME280;55800;54.272;18.558;2023-02-28T09:10:20;102581.66;;;0.96;69.10
68807;BME280;55800;54.272;18.558;2023-02-28T09:12:50;102585.53;;;1.09;68.61
68807;BME280;55800;54.272;18.558;2023-02-28T09:15:20;102579.63;;;1.17;68.96
68807;BME280;55800;54.272;18.558;2023-02-28T09:17:51;102576.34;;;1.26;68.88
68807;BME280;55800;54.272;18.558;2023-02-28T09:20:21;102571.31;;;1.33;68.90
68807;BME280;55800;54.272;18.558;2023-02-28T09:22:50;102581.25;;;1.45;68.68
68807;BME280;55800;54.272;18.558;2023-02-28T09:25:19;102578.94;;;1.57;68.51
68807;BME280;55800;54.272;18.558;2023-02-28T09:27:48;102571.16;;;1.62;68.41
68807;BME280;55800;54.272;18.558;2023-02-28T09:30:18;102587.34;;;1.77;68.08
68807;BME280;55800;54.272;18.558;2023-02-28T09:32:52;102585.84;;;1.86;67.94
68807;BME280;55800;54.272;18.558;2023-02-28T09:35:22;102586.97;;;1.97;67.82
68807;BME280;55800;54.272;18.558;2023-02-28T09:37:52;102591.66;;;2.07;67.63
68807;BME280;55800;54.272;18.558;2023-02-28T09:40:24;102585.72;;;2.17;66.48
68807;BME280;55800;54.272;18.558;2023-02-28T09:42:57;102589.38;;;2.22;66.89
68807;BME280;55800;54.272;18.558;2023-02-28T09:45:30;102591.34;;;2.31;66.78
68807;BME280;55800;54.272;18.558;2023-02-28T09:48:06;102588.06;;;2.41;66.28
68807;BME280;55800;54.272;18.558;2023-02-28T09:50:41;102582.91;;;2.47;65.72
68807;BME280;55800;54.272;18.558;2023-02-28T09:53:19;102591.84;;;2.54;65.68
68807;BME280;55800;54.272;18.558;2023-02-28T09:55:55;102590.22;;;2.59;65.83
68807;BME280;55800;54.272;18.558;2023-02-28T09:58:33;102583.34;;;2.67;65.89
68807;BME280;55800;54.272;18.558;2023-02-28T10:01:10;102577.25;;;2.71;66.75
68807;BME280;55800;54.272;18.558;2023-02-28T10:03:46;102588.06;;;2.81;66.20
68807;BME280;55800;54.272;18.558;2023-02-28T10:06:20;102573.25;;;2.89;66.38
68807;BME280;55800;54.272;18.558;2023-02-28T10:08:58;102569.91;;;2.98;64.98
68807;BME280;55800;54.272;18.558;2023-02-28T10:11:32;102570.00;;;3.02;65.63
68807;BME280;55800;54.272;18.558;2023-02-28T10:14:06;102578.13;;;3.13;64.94
68807;BME280;55800;54.272;18.558;2023-02-28T10:16:41;102573.88;;;3.21;64.50
68807;BME280;55800;54.272;18.558;2023-02-28T10:19:20;102573.06;;;3.24;64.29
68807;BME280;55800;54.272;18.558;2023-02-28T10:21:57;102567.81;;;3.27;64.72
68807;BME280;55800;54.272;18.558;2023-02-28T10:24:32;102567.03;;;3.31;64.44
68807;BME280;55800;54.272;18.558;2023-02-28T10:27:12;102568.97;;;3.39;64.67
68807;BME280;55800;54.272;18.558;2023-02-28T10:29:44;102561.09;;;3.44;64.08
68807;BME280;55800;54.272;18.558;2023-02-28T10:32:16;102577.94;;;3.49;64.39
68807;BME280;55800;54.272;18.558;2023-02-28T10:34:51;102571.81;;;3.51;64.96
68807;BME280;55800;54.272;18.558;2023-02-28T10:37:22;102567.47;;;3.55;64.30
68807;BME280;55800;54.272;18.558;2023-02-28T10:39:52;102561.47;;;3.65;63.88
68807;BME280;55800;54.272;18.558;2023-02-28T10:42:24;102571.25;;;3.69;64.20
68807;BME280;55800;54.272;18.558;2023-02-28T10:45:07;102563.44;;;3.76;63.48
68807;BME280;55800;54.272;18.558;2023-02-28T10:47:49;102559.97;;;3.79;63.98
68807;BME280;55800;54.272;18.558;2023-02-28T10:50:32;102552.09;;;3.83;63.16
68807;BME280;55800;54.272;18.558;2023-02-28T10:53:14;102554.81;;;3.88;63.05
68807;BME280;55800;54.272;18.558;2023-02-28T10:55:49;102548.72;;;3.92;62.71
68807;BME280;55800;54.272;18.558;2023-02-28T10:58:26;102554.09;;;3.97;63.60
68807;BME280;55800;54.272;18.558;2023-02-28T11:00:57;102557.66;;;4.00;63.69
68807;BME280;55800;54.272;18.558;2023-02-28T11:03:32;102556.00;;;4.07;63.61
68807;BME280;55800;54.272;18.558;2023-02-28T11:06:10;102556.91;;;4.09;64.65
68807;BME280;55800;54.272;18.558;2023-02-28T11:08:50;102551.63;;;4.10;62.78
68807;BME280;55800;54.272;18.558;2023-02-28T11:11:22;102540.28;;;4.19;62.48
68807;BME280;55800;54.272;18.558;2023-02-28T11:13:54;102543.06;;;4.26;62.32
68807;BME280;55800;54.272;18.558;2023-02-28T11:16:33;102542.25;;;4.30;61.73
68807;BME280;55800;54.272;18.558;2023-02-28T11:19:04;102543.16;;;4.32;60.20
68807;BME280;55800;54.272;18.558;2023-02-28T11:21:38;102546.66;;;4.31;61.01
68807;BME280;55800;54.272;18.558;2023-02-28T11:24:17;102541.44;;;4.37;62.31
68807;BME280;55800;54.272;18.558;2023-02-28T11:26:50;102537.03;;;4.39;61.25
68807;BME280;55800;54.272;18.558;2023-02-28T11:29:22;102534.47;;;4.44;61.41
68807;BME280;55800;54.272;18.558;2023-02-28T11:32:13;102533.63;;;4.48;61.01
68807;BME280;55800;54.272;18.558;2023-02-28T11:34:45;102535.44;;;4.50;60.56
68807;BME280;55800;54.272;18.558;2023-02-28T11:37:18;102530.22;;;4.55;61.06
68807;BME280;55800;54.272;18.558;2023-02-28T11:39:48;102528.47;;;4.58;60.33
68807;BME280;55800;54.272;18.558;2023-02-28T11:42:31;102523.22;;;4.61;59.54
68807;BME280;55800;54.272;18.558;2023-02-28T11:45:16;102517.09;;;4.65;60.17
68807;BME280;55800;54.272;18.558;2023-02-28T11:47:52;102517.09;;;4.67;59.95
68807;BME280;55800;54.272;18.558;2023-02-28T11:50:38;102514.53;;;4.71;60.79
68807;BME280;55800;54.272;18.558;2023-02-28T11:53:21;102513.66;;;4.74;62.28
68807;BME280;55800;54.272;18.558;2023-02-28T11:55:59;102510.19;;;4.78;60.75
68807;BME280;55800;54.272;18.558;2023-02-28T11:58:41;102496.09;;;4.84;60.61
68807;BME280;55800;54.272;18.558;2023-02-28T12:01:26;102497.06;;;4.90;61.56
68807;BME280;55800;54.272;18.558;2023-02-28T12:04:14;102489.16;;;4.95;59.99
68807;BME280;55800;54.272;18.558;2023-02-28T12:06:50;102483.91;;;4.98;59.91
68807;BME280;55800;54.272;18.558;2023-02-28T12:09:39;102472.47;;;5.02;59.13
68807;BME280;55800;54.272;18.558;2023-02-28T12:12:23;102466.31;;;5.06;59.30
68807;BME280;55800;54.272;18.558;2023-02-28T12:15:15;102464.56;;;5.08;58.90
68807;BME280;55800;54.272;18.558;2023-02-28T12:17:57;102461.06;;;5.12;60.10
68807;BME280;55800;54.272;18.558;2023-02-28T12:20:36;102463.72;;;5.12;58.43
68807;BME280;55800;54.272;18.558;2023-02-28T12:23:27;102473.47;;;5.16;58.49
68807;BME280;55800;54.272;18.558;2023-02-28T12:26:07;102472.63;;;5.18;60.01
68807;BME280;55800;54.272;18.558;2023-02-28T12:28:43;102457.63;;;5.22;59.95
68807;BME280;55800;54.272;18.558;2023-02-28T12:31:19;102455.00;;;5.23;58.76
68807;BME280;55800;54.272;18.558;2023-02-28T12:33:52;102458.56;;;5.27;59.22
68807;BME280;55800;54.272;18.558;2023-02-28T12:36:23;102455.06;;;5.29;58.85
68807;BME280;55800;54.272;18.558;2023-02-28T12:38:58;102466.56;;;5.33;58.38
68807;BME280;55800;54.272;18.558;2023-02-28T12:41:37;102467.47;;;5.33;58.25
68807;BME280;55800;54.272;18.558;2023-02-28T12:44:11;102460.41;;;5.37;57.66
68807;BME280;55800;54.272;18.558;2023-02-28T12:46:44;102450.75;;;5.42;60.02
68807;BME280;55800;54.272;18.558;2023-02-28T12:49:19;102444.59;;;5.46;58.83
68807;BME280;55800;54.272;18.558;2023-02-28T12:51:51;102460.50;;;5.47;58.33
68807;BME280;55800;54.272;18.558;2023-02-28T12:54:22;102451.69;;;5.50;58.47
68807;BME280;55800;54.272;18.558;2023-02-28T12:57:05;102450.84;;;5.54;59.30
68807;BME280;55800;54.272;18.558;2023-02-28T12:59:39;102458.81;;;5.57;58.67
68807;BME280;55800;54.272;18.558;2023-02-28T13:02:23;102453.56;;;5.62;59.84
68807;BME280;55800;54.272;18.558;2023-02-28T13:05:07;102447.34;;;5.63;58.62
68807;BME280;55800;54.272;18.558;2023-02-28T13:08:33;102443.00;;;5.68;59.15
68807;BME280;55800;54.272;18.558;2023-02-28T13:11:08;102448.31;;;5.71;58.32
68807;BME280;55800;54.272;18.558;2023-02-28T13:14:00;102449.19;;;5.71;58.36
68807;BME280;55800;54.272;18.558;2023-02-28T13:16:51;102440.34;;;5.71;57.24